sensor_id;sensor_type;location;lat;lon;timestamp;temperature;humidity
2861;DHT22;1438;50.922;6.704;2022-11-13T11:42:50;23.20;91.80
2861;DHT22;1438;50.922;6.704;2022-11-13T11:45:36;22.90;91.30
2861;DHT22;1438;50.922;6.704;2022-11-13T11:48:12;22.90;90.80
2861;DHT22;1438;50.922;6.704;2022-11-13T12:01:30;21.50;87.00
2861;DHT22;1438;50.922;6.704;2022-11-13T12:09:32;21.00;89.90
2861;DHT22;1438;50.922;6.704;2022-11-13T12:20:46;21.70;91.70
2861;DHT22;1438;50.922;6.704;2022-11-13T12:26:35;22.10;89.50
2861;DHT22;1438;50.922;6.704;2022-11-13T12:37:11;22.30;84.10
2861;DHT22;1438;50.922;6.704;2022-11-13T12:39:56;22.30;83.60
2861;DHT22;1438;50.922;6.704;2022-11-13T12:42:34;22.60;82.90
2861;DHT22;1438;50.922;6.704;2022-11-13T12:45:25;23.10;83.70
2861;DHT22;1438;50.922;6.704;2022-11-13T12:48:48;23.10;80.50
2861;DHT22;1438;50.922;6.704;2022-11-13T12:50:57;23.00;83.20
2861;DHT22;1438;50.922;6.704;2022-11-13T12:53:26;23.20;81.60
2861;DHT22;1438;50.922;6.704;2022-11-13T12:58:53;23.30;80.30
2861;DHT22;1438;50.922;6.704;2022-11-13T13:01:21;23.60;79.80
2861;DHT22;1438;50.922;6.704;2022-11-13T13:12:36;23.60;75.50
2861;DHT22;1438;50.922;6.704;2022-11-13T13:15:14;23.40;75.30
2861;DHT22;1438;50.922;6.704;2022-11-13T13:17:42;23.40;71.80
2861;DHT22;1438;50.922;6.704;2022-11-13T13:22:39;23.30;74.90
2861;DHT22;1438;50.922;6.704;2022-11-13T13:25:06;23.50;75.30
2861;DHT22;1438;50.922;6.704;2022-11-13T13:28:16;23.60;73.90
2861;DHT22;1438;50.922;6.704;2022-11-13T13:34:03;23.30;73.60
2861;DHT22;1438;50.922;6.704;2022-11-13T13:37:02;23.40;74.70
2861;DHT22;1438;50.922;6.704;2022-11-13T13:39:57;23.60;74.90
2861;DHT22;1438;50.922;6.704;2022-11-13T13:47:46;23.80;70.40
2861;DHT22;1438;50.922;6.704;2022-11-13T13:50:17;23.70;71.10
2861;DHT22;1438;50.922;6.704;2022-11-13T13:52:44;23.70;71.50
2861;DHT22;1438;50.922;6.704;2022-11-13T13:55:18;23.40;70.70
2861;DHT22;1438;50.922;6.704;2022-11-13T13:57:46;23.20;69.60
2861;DHT22;1438;50.922;6.704;2022-11-13T14:00:14;23.10;70.70
2861;DHT22;1438;50.922;6.704;2022-11-13T14:02:48;23.30;70.00
2861;DHT22;1438;50.922;6.704;2022-11-13T14:05:26;22.80;70.60
2861;DHT22;1438;50.922;6.704;2022-11-13T14:07:52;22.90;69.40
2861;DHT22;1438;50.922;6.704;2022-11-13T14:10:20;23.10;67.90
2861;DHT22;1438;50.922;6.704;2022-11-13T14:12:46;23.10;67.30
2861;DHT22;1438;50.922;6.704;2022-11-13T14:15:29;22.80;68.90
2861;DHT22;1438;50.922;6.704;2022-11-13T14:18:16;22.80;69.70
2861;DHT22;1438;50.922;6.704;2022-11-13T14:20:51;22.90;69.20
2861;DHT22;1438;50.922;6.704;2022-11-13T14:23:23;22.50;70.20
2861;DHT22;1438;50.922;6.704;2022-11-13T14:25:52;22.50;71.60
2861;DHT22;1438;50.922;6.704;2022-11-13T14:28:20;22.50;70.50
2861;DHT22;1438;50.922;6.704;2022-11-13T14:30:59;22.60;68.90
2861;DHT22;1438;50.922;6.704;2022-11-13T14:33:50;22.40;69.40
2861;DHT22;1438;50.922;6.704;2022-11-13T14:36:27;22.20;69.20
2861;DHT22;1438;50.922;6.704;2022-11-13T14:38:55;21.80;67.60
2861;DHT22;1438;50.922;6.704;2022-11-13T14:41:56;21.40;66.80
2861;DHT22;1438;50.922;6.704;2022-11-13T14:44:31;21.20;68.40
2861;DHT22;1438;50.922;6.704;2022-11-13T14:47:03;21.30;69.00
2861;DHT22;1438;50.922;6.704;2022-11-13T14:49:32;20.70;69.00
2861;DHT22;1438;50.922;6.704;2022-11-13T14:51:58;20.40;71.50
2861;DHT22;1438;50.922;6.704;2022-11-13T14:54:33;20.20;71.10
2861;DHT22;1438;50.922;6.704;2022-11-13T14:57:11;20.10;71.10
2861;DHT22;1438;50.922;6.704;2022-11-13T14:59:37;19.90;73.40
2861;DHT22;1438;50.922;6.704;2022-11-13T15:02:03;20.00;74.10
2861;DHT22;1438;50.922;6.704;2022-11-13T15:04:29;19.90;77.10
2861;DHT22;1438;50.922;6.704;2022-11-13T15:06:59;19.10;80.30
2861;DHT22;1438;50.922;6.704;2022-11-13T15:09:25;18.80;81.50
2861;DHT22;1438;50.922;6.704;2022-11-13T15:11:51;18.50;83.00
2861;DHT22;1438;50.922;6.704;2022-11-13T15:14:19;18.30;84.80
2861;DHT22;1438;50.922;6.704;2022-11-13T15:16:45;18.10;87.80
2861;DHT22;1438;50.922;6.704;2022-11-13T15:19:26;17.80;89.70
2861;DHT22;1438;50.922;6.704;2022-11-13T15:21:53;17.80;91.20
2861;DHT22;1438;50.922;6.704;2022-11-13T15:24:19;17.60;93.20
2861;DHT22;1438;50.922;6.704;2022-11-13T15:26:44;17.30;95.00
2861;DHT22;1438;50.922;6.704;2022-11-13T15:29:10;16.90;97.40
2861;DHT22;1438;50.922;6.704;2022-11-13T15:31:39;16.60;99.90
2861;DHT22;1438;50.922;6.704;2022-11-13T15:34:07;16.50;99.90
2861;DHT22;1438;50.922;6.704;2022-11-13T15:36:33;16.50;99.90
2861;DHT22;1438;50.922;6.704;2022-11-13T15:38:58;16.30;99.90
2861;DHT22;1438;50.922;6.704;2022-11-13T15:41:27;16.00;99.90
2861;DHT22;1438;50.922;6.704;2022-11-13T15:43:55;15.90;99.90
2861;DHT22;1438;50.922;6.704;2022-11-13T15:46:22;15.70;99.90
2861;DHT22;1438;50.922;6.704;2022-11-13T15:48:48;15.50;99.90
2861;DHT22;1438;50.922;6.704;2022-11-13T15:51:23;15.30;99.90
2861;DHT22;1438;50.922;6.704;2022-11-13T15:54:00;15.30;99.90
2861;DHT22;1438;50.922;6.704;2022-11-13T15:56:27;15.10;99.90
2861;DHT22;1438;50.922;6.704;2022-11-13T15:58:53;14.90;99.90
2861;DHT22;1438;50.922;6.704;2022-11-13T16:01:19;14.80;99.90
2861;DHT22;1438;50.922;6.704;2022-11-13T16:03:44;14.60;99.90
2861;DHT22;1438;50.922;6.704;2022-11-13T16:06:14;14.40;99.90
2861;DHT22;1438;50.922;6.704;2022-11-13T16:08:41;14.30;99.90
2861;DHT22;1438;50.922;6.704;2022-11-13T16:11:13;14.10;99.90
2861;DHT22;1438;50.922;6.704;2022-11-13T16:13:38;14.00;99.90
2861;DHT22;1438;50.922;6.704;2022-11-13T16:16:04;13.80;99.90
2861;DHT22;1438;50.922;6.704;2022-11-13T16:18:30;13.70;99.90
2861;DHT22;1438;50.922;6.704;2022-11-13T16:20:56;13.50;99.90
2861;DHT22;1438;50.922;6.704;2022-11-13T16:23:22;13.30;99.90
2861;DHT22;1438;50.922;6.704;2022-11-13T16:25:48;13.20;99.90
2861;DHT22;1438;50.922;6.704;2022-11-13T16:28:18;13.00;99.90
2861;DHT22;1438;50.922;6.704;2022-11-13T16:30:44;12.90;99.90
2861;DHT22;1438;50.922;6.704;2022-11-13T16:33:11;12.70;99.90
2861;DHT22;1438;50.922;6.704;2022-11-13T16:35:37;12.60;99.90
2861;DHT22;1438;50.922;6.704;2022-11-13T16:38:12;12.50;99.90
2861;DHT22;1438;50.922;6.704;2022-11-13T16:40:38;12.40;99.90
2861;DHT22;1438;50.922;6.704;2022-11-13T16:43:06;12.30;99.90
2861;DHT22;1438;50.922;6.704;2022-11-13T16:45:32;12.20;99.90
2861;DHT22;1438;50.922;6.704;2022-11-13T16:47:57;12.00;99.90
2861;DHT22;1438;50.922;6.704;2022-11-13T16:50:27;11.90;99.90
2861;DHT22;1438;50.922;6.704;2022-11-13T16:52:52;11.80;99.90
2861;DHT22;1438;50.922;6.704;2022-11-13T16:55:18;11.70;99.90
2861;DHT22;1438;50.922;6.704;2022-11-13T16:57:44;11.60;99.90
2861;DHT22;1438;50.922;6.704;2022-11-13T17:00:13;11.50;99.90
2861;DHT22;1438;50.922;6.704;2022-11-13T17:02:39;11.40;99.90
2861;DHT22;1438;50.922;6.704;2022-11-13T17:05:05;11.20;99.90
2861;DHT22;1438;50.922;6.704;2022-11-13T17:07:31;11.20;99.90
2861;DHT22;1438;50.922;6.704;2022-11-13T17:09:56;11.10;99.90
2861;DHT22;1438;50.922;6.704;2022-11-13T17:12:22;11.00;99.90
2861;DHT22;1438;50.922;6.704;2022-11-13T17:14:47;10.80;99.90
2861;DHT22;1438;50.922;6.704;2022-11-13T17:17:13;10.70;99.90
2861;DHT22;1438;50.922;6.704;2022-11-13T17:19:40;10.70;99.90
2861;DHT22;1438;50.922;6.704;2022-11-13T17:22:09;10.60;99.90
2861;DHT22;1438;50.922;6.704;2022-11-13T17:24:36;10.50;99.90
2861;DHT22;1438;50.922;6.704;2022-11-13T17:27:01;10.40;99.90
2861;DHT22;1438;50.922;6.704;2022-11-13T17:29:27;10.30;99.90
2861;DHT22;1438;50.922;6.704;2022-11-13T17:31:52;10.20;99.90
2861;DHT22;1438;50.922;6.704;2022-11-13T17:34:18;10.20;99.90
2861;DHT22;1438;50.922;6.704;2022-11-13T17:36:43;10.10;99.90
2861;DHT22;1438;50.922;6.704;2022-11-13T17:39:09;10.00;99.90
2861;DHT22;1438;50.922;6.704;2022-11-13T17:41:35;9.90;99.90
2861;DHT22;1438;50.922;6.704;2022-11-13T17:44:02;9.80;99.90
2861;DHT22;1438;50.922;6.704;2022-11-13T17:46:28;9.70;99.90
2861;DHT22;1438;50.922;6.704;2022-11-13T17:48:54;9.60;99.90
2861;DHT22;1438;50.922;6.704;2022-11-13T17:51:20;9.60;99.90
2861;DHT22;1438;50.922;6.704;2022-11-13T17:53:46;9.50;99.90
2861;DHT22;1438;50.922;6.704;2022-11-13T17:56:12;9.40;99.90
2861;DHT22;1438;50.922;6.704;2022-11-13T17:58:40;9.40;99.90
2861;DHT22;1438;50.922;6.704;2022-11-13T18:01:09;9.40;99.90
2861;DHT22;1438;50.922;6.704;2022-11-13T18:03:35;9.30;99.90
2861;DHT22;1438;50.922;6.704;2022-11-13T18:06:11;9.20;99.90
2861;DHT22;1438;50.922;6.704;2022-11-13T18:08:38;9.10;99.90
2861;DHT22;1438;50.922;6.704;2022-11-13T18:11:08;9.10;99.90
2861;DHT22;1438;50.922;6.704;2022-11-13T18:13:35;9.00;99.90
2861;DHT22;1438;50.922;6.704;2022-11-13T18:16:05;8.90;99.90
2861;DHT22;1438;50.922;6.704;2022-11-13T18:18:31;8.80;99.90
2861;DHT22;1438;50.922;6.704;2022-11-13T18:20:57;8.70;99.90
2861;DHT22;1438;50.922;6.704;2022-11-13T18:23:23;8.60;99.90
2861;DHT22;1438;50.922;6.704;2022-11-13T18:25:48;8.60;99.90
2861;DHT22;1438;50.922;6.704;2022-11-13T18:28:14;8.50;99.90
2861;DHT22;1438;50.922;6.704;2022-11-13T18:30:40;8.50;99.90
2861;DHT22;1438;50.922;6.704;2022-11-13T18:33:06;8.50;99.90
2861;DHT22;1438;50.922;6.704;2022-11-13T18:35:32;8.40;99.90
2861;DHT22;1438;50.922;6.704;2022-11-13T18:37:57;8.30;99.90
2861;DHT22;1438;50.922;6.704;2022-11-13T18:40:23;8.30;99.90
2861;DHT22;1438;50.922;6.704;2022-11-13T18:42:49;8.20;99.90
2861;DHT22;1438;50.922;6.704;2022-11-13T18:45:15;8.10;99.90
2861;DHT22;1438;50.922;6.704;2022-11-13T18:47:41;8.00;99.90
2861;DHT22;1438;50.922;6.704;2022-11-13T18:50:07;7.90;99.90
2861;DHT22;1438;50.922;6.704;2022-11-13T18:52:33;7.80;99.90
2861;DHT22;1438;50.922;6.704;2022-11-13T18:54:59;7.70;99.90
2861;DHT22;1438;50.922;6.704;2022-11-13T18:57:24;7.70;99.90
2861;DHT22;1438;50.922;6.704;2022-11-13T18:59:50;7.60;99.90
2861;DHT22;1438;50.922;6.704;2022-11-13T19:02:15;7.50;99.90
2861;DHT22;1438;50.922;6.704;2022-11-13T19:04:41;7.50;99.90
2861;DHT22;1438;50.922;6.704;2022-11-13T19:07:07;7.40;99.90
2861;DHT22;1438;50.922;6.704;2022-11-13T19:09:33;7.30;99.90
2861;DHT22;1438;50.922;6.704;2022-11-13T19:11:59;7.30;99.90
2861;DHT22;1438;50.922;6.704;2022-11-13T19:14:24;7.20;99.90
2861;DHT22;1438;50.922;6.704;2022-11-13T19:16:50;7.20;99.90
2861;DHT22;1438;50.922;6.704;2022-11-13T19:19:21;7.20;99.90
2861;DHT22;1438;50.922;6.704;2022-11-13T19:21:47;7.10;99.90
2861;DHT22;1438;50.922;6.704;2022-11-13T19:24:12;7.10;99.90
2861;DHT22;1438;50.922;6.704;2022-11-13T19:26:39;7.00;99.90
2861;DHT22;1438;50.922;6.704;2022-11-13T19:29:05;7.00;99.90
2861;DHT22;1438;50.922;6.704;2022-11-13T19:31:31;6.90;99.90
2861;DHT22;1438;50.922;6.704;2022-11-13T19:33:59;6.90;99.90
2861;DHT22;1438;50.922;6.704;2022-11-13T19:36:27;6.80;99.90
2861;DHT22;1438;50.922;6.704;2022-11-13T19:38:53;6.80;99.90
2861;DHT22;1438;50.922;6.704;2022-11-13T19:41:20;6.70;99.90
2861;DHT22;1438;50.922;6.704;2022-11-13T19:43:46;6.70;99.90
2861;DHT22;1438;50.922;6.704;2022-11-13T19:46:16;6.60;99.90
2861;DHT22;1438;50.922;6.704;2022-11-13T19:48:44;6.70;99.90
2861;DHT22;1438;50.922;6.704;2022-11-13T19:51:14;6.60;99.90
2861;DHT22;1438;50.922;6.704;2022-11-13T19:53:40;6.50;99.90
2861;DHT22;1438;50.922;6.704;2022-11-13T19:56:18;6.50;99.90
2861;DHT22;1438;50.922;6.704;2022-11-13T19:58:46;6.50;99.90
2861;DHT22;1438;50.922;6.704;2022-11-13T20:01:18;6.50;99.90
2861;DHT22;1438;50.922;6.704;2022-11-13T20:03:44;6.50;99.90
2861;DHT22;1438;50.922;6.704;2022-11-13T20:06:11;6.50;99.90
2861;DHT22;1438;50.922;6.704;2022-11-13T20:08:38;6.50;99.90
2861;DHT22;1438;50.922;6.704;2022-11-13T20:11:08;6.50;99.90
2861;DHT22;1438;50.922;6.704;2022-11-13T20:13:36;6.50;99.90
2861;DHT22;1438;50.922;6.704;2022-11-13T20:16:13;6.40;99.90
2861;DHT22;1438;50.922;6.704;2022-11-13T20:18:39;6.40;99.90
2861;DHT22;1438;50.922;6.704;2022-11-13T20:21:05;6.40;99.90
2861;DHT22;1438;50.922;6.704;2022-11-13T20:23:31;6.30;99.90
2861;DHT22;1438;50.922;6.704;2022-11-13T20:25:59;6.30;99.90
2861;DHT22;1438;50.922;6.704;2022-11-13T20:28:29;6.30;99.90
2861;DHT22;1438;50.922;6.704;2022-11-13T20:31:22;6.30;99.90
2861;DHT22;1438;50.922;6.704;2022-11-13T20:33:49;6.30;99.90
2861;DHT22;1438;50.922;6.704;2022-11-13T20:36:18;6.20;99.90
2861;DHT22;1438;50.922;6.704;2022-11-13T20:38:48;6.10;99.90
2861;DHT22;1438;50.922;6.704;2022-11-13T20:41:15;6.10;99.90
2861;DHT22;1438;50.922;6.704;2022-11-13T20:43:40;6.10;99.90
2861;DHT22;1438;50.922;6.704;2022-11-13T20:46:11;6.00;99.90
2861;DHT22;1438;50.922;6.704;2022-11-13T20:48:37;6.00;99.90
2861;DHT22;1438;50.922;6.704;2022-11-13T20:51:08;5.90;99.90
2861;DHT22;1438;50.922;6.704;2022-11-13T20:53:34;5.90;99.90
2861;DHT22;1438;50.922;6.704;2022-11-13T20:56:00;5.80;99.90
2861;DHT22;1438;50.922;6.704;2022-11-13T20:58:26;5.80;99.90
2861;DHT22;1438;50.922;6.704;2022-11-13T21:00:52;5.80;99.90
2861;DHT22;1438;50.922;6.704;2022-11-13T21:03:17;5.70;99.90
2861;DHT22;1438;50.922;6.704;2022-11-13T21:05:43;5.70;99.90
2861;DHT22;1438;50.922;6.704;2022-11-13T21:08:09;5.60;99.90
2861;DHT22;1438;50.922;6.704;2022-11-13T21:10:35;5.60;99.90
2861;DHT22;1438;50.922;6.704;2022-11-13T21:13:01;5.50;99.90
2861;DHT22;1438;50.922;6.704;2022-11-13T21:15:26;5.40;99.90
2861;DHT22;1438;50.922;6.704;2022-11-13T21:17:52;5.40;99.90
2861;DHT22;1438;50.922;6.704;2022-11-13T21:20:17;5.40;99.90
2861;DHT22;1438;50.922;6.704;2022-11-13T21:22:43;5.20;99.90
2861;DHT22;1438;50.922;6.704;2022-11-13T21:25:08;5.20;99.90
2861;DHT22;1438;50.922;6.704;2022-11-13T21:27:34;5.20;99.90
2861;DHT22;1438;50.922;6.704;2022-11-13T21:30:00;5.10;99.90
2861;DHT22;1438;50.922;6.704;2022-11-13T21:32:25;5.10;99.90
2861;DHT22;1438;50.922;6.704;2022-11-13T21:34:51;5.10;99.90
2861;DHT22;1438;50.922;6.704;2022-11-13T21:37:18;5.00;99.90
2861;DHT22;1438;50.922;6.704;2022-11-13T21:39:44;5.00;99.90
2861;DHT22;1438;50.922;6.704;2022-11-13T21:42:09;4.90;99.90
2861;DHT22;1438;50.922;6.704;2022-11-13T21:44:35;4.90;99.90
2861;DHT22;1438;50.922;6.704;2022-11-13T21:47:02;4.80;99.90
2861;DHT22;1438;50.922;6.704;2022-11-13T21:49:27;4.80;99.90
2861;DHT22;1438;50.922;6.704;2022-11-13T21:51:53;4.70;99.90
2861;DHT22;1438;50.922;6.704;2022-11-13T21:54:18;4.70;99.90
2861;DHT22;1438;50.922;6.704;2022-11-13T21:56:44;4.70;99.90
2861;DHT22;1438;50.922;6.704;2022-11-13T21:59:10;4.70;99.90
2861;DHT22;1438;50.922;6.704;2022-11-13T22:01:35;4.60;99.90
2861;DHT22;1438;50.922;6.704;2022-11-13T22:04:01;4.60;99.90
2861;DHT22;1438;50.922;6.704;2022-11-13T22:06:33;4.60;99.90
2861;DHT22;1438;50.922;6.704;2022-11-13T22:09:13;4.50;99.90
2861;DHT22;1438;50.922;6.704;2022-11-13T22:11:39;4.40;99.90
2861;DHT22;1438;50.922;6.704;2022-11-13T22:14:05;4.40;99.90
2861;DHT22;1438;50.922;6.704;2022-11-13T22:16:34;4.40;99.90
2861;DHT22;1438;50.922;6.704;2022-11-13T22:19:02;4.30;99.90
2861;DHT22;1438;50.922;6.704;2022-11-13T22:21:29;4.30;99.90
2861;DHT22;1438;50.922;6.704;2022-11-13T22:23:55;4.20;99.90
2861;DHT22;1438;50.922;6.704;2022-11-13T22:26:22;4.20;99.90
2861;DHT22;1438;50.922;6.704;2022-11-13T22:28:49;4.20;99.90
2861;DHT22;1438;50.922;6.704;2022-11-13T22:31:17;4.10;99.90
2861;DHT22;1438;50.922;6.704;2022-11-13T22:33:46;4.10;99.90
2861;DHT22;1438;50.922;6.704;2022-11-13T22:36:15;4.00;99.90
2861;DHT22;1438;50.922;6.704;2022-11-13T22:38:41;4.00;99.90
2861;DHT22;1438;50.922;6.704;2022-11-13T22:41:16;4.00;99.90
2861;DHT22;1438;50.922;6.704;2022-11-13T22:43:44;4.00;99.90
2861;DHT22;1438;50.922;6.704;2022-11-13T22:46:12;4.00;99.90
2861;DHT22;1438;50.922;6.704;2022-11-13T22:48:40;4.00;99.90
2861;DHT22;1438;50.922;6.704;2022-11-13T22:51:20;3.90;99.90
2861;DHT22;1438;50.922;6.704;2022-11-13T22:53:54;3.90;99.90
2861;DHT22;1438;50.922;6.704;2022-11-13T22:56:21;3.90;99.90
2861;DHT22;1438;50.922;6.704;2022-11-13T22:58:47;3.80;99.90
2861;DHT22;1438;50.922;6.704;2022-11-13T23:01:15;3.80;99.90
2861;DHT22;1438;50.922;6.704;2022-11-13T23:03:43;3.70;99.90
2861;DHT22;1438;50.922;6.704;2022-11-13T23:06:11;3.70;99.90
2861;DHT22;1438;50.922;6.704;2022-11-13T23:08:37;3.70;99.90
2861;DHT22;1438;50.922;6.704;2022-11-13T23:11:05;3.70;99.90
2861;DHT22;1438;50.922;6.704;2022-11-13T23:13:31;3.70;99.90
2861;DHT22;1438;50.922;6.704;2022-11-13T23:15:58;3.60;99.90
2861;DHT22;1438;50.922;6.704;2022-11-13T23:18:24;3.70;99.90
2861;DHT22;1438;50.922;6.704;2022-11-13T23:20:50;3.60;99.90
2861;DHT22;1438;50.922;6.704;2022-11-13T23:23:15;3.60;99.90
2861;DHT22;1438;50.922;6.704;2022-11-13T23:25:42;3.60;99.90
2861;DHT22;1438;50.922;6.704;2022-11-13T23:28:09;3.60;99.90
2861;DHT22;1438;50.922;6.704;2022-11-13T23:30:34;3.60;99.90
2861;DHT22;1438;50.922;6.704;2022-11-13T23:33:00;3.60;99.90
2861;DHT22;1438;50.922;6.704;2022-11-13T23:35:26;3.60;99.90
2861;DHT22;1438;50.922;6.704;2022-11-13T23:37:52;3.60;99.90
2861;DHT22;1438;50.922;6.704;2022-11-13T23:40:17;3.60;99.90
2861;DHT22;1438;50.922;6.704;2022-11-13T23:42:43;3.50;99.90
2861;DHT22;1438;50.922;6.704;2022-11-13T23:45:09;3.50;99.90
2861;DHT22;1438;50.922;6.704;2022-11-13T23:47:34;3.50;99.90
2861;DHT22;1438;50.922;6.704;2022-11-13T23:50:00;3.50;99.90
2861;DHT22;1438;50.922;6.704;2022-11-13T23:52:25;3.50;99.90
2861;DHT22;1438;50.922;6.704;2022-11-13T23:54:51;3.60;99.90
2861;DHT22;1438;50.922;6.704;2022-11-13T23:57:17;3.60;99.90
2861;DHT22;1438;50.922;6.704;2022-11-13T23:59:42;3.60;99.90
